ENY1246 KORD-KTOL
Flight info
| Callsign | ENY1246 |
|---|---|
| Flight time | 0h 37m |
| Altitude | 21000 |
| Route | MOBLE ADIME MUDHN |
| Aircraft | CRJ7/M-SDFGIRWY/S |
Departure
| Time | 2026-05-05 21:30 |
|---|---|
| Airport | Chicago O'Hare International Airport (KORD) |
Arrival
| Time | 2026-05-05 22:07 |
|---|---|
| Airport | Eugene F. Kranz Toledo Express Airport (KTOL) |
| Time | Latitude | Longitude | Altitude | Speed | Heading |
|---|---|---|---|---|---|
| 2026-05-05 20:46 | 41.97821 | -87.90981 | 669 ft | 0 kts | 284° |
| 2026-05-05 21:12 | 41.97820 | -87.90978 | 669 ft | 4 kts | 258° |
| 2026-05-05 21:13 | 41.97821 | -87.90954 | 669 ft | 4 kts | 269° |
| 2026-05-05 21:13 | 41.97825 | -87.90919 | 669 ft | 4 kts | 244° |
| 2026-05-05 21:13 | 41.97841 | -87.90903 | 669 ft | 3 kts | 193° |
| 2026-05-05 21:13 | 41.97867 | -87.90896 | 669 ft | 4 kts | 189° |
| 2026-05-05 21:14 | 41.97884 | -87.90893 | 669 ft | 0 kts | 189° |
| 2026-05-05 21:20 | 41.97869 | -87.90896 | 669 ft | 7 kts | 189° |
| 2026-05-05 21:20 | 41.97795 | -87.90912 | 669 ft | 12 kts | 189° |
| 2026-05-05 21:21 | 41.97710 | -87.90931 | 669 ft | 14 kts | 189° |
| 2026-05-05 21:21 | 41.97625 | -87.90950 | 669 ft | 4 kts | 199° |
| 2026-05-05 21:21 | 41.97599 | -87.90987 | 669 ft | 8 kts | 237° |
| 2026-05-05 21:21 | 41.97570 | -87.91078 | 669 ft | 10 kts | 243° |
| 2026-05-05 21:22 | 41.97556 | -87.91110 | 669 ft | 1 kts | 227° |
| 2026-05-05 21:22 | 41.97539 | -87.91115 | 669 ft | 1 kts | 170° |
| 2026-05-05 21:22 | 41.97506 | -87.91078 | 669 ft | 10 kts | 139° |
| 2026-05-05 21:22 | 41.97434 | -87.90998 | 669 ft | 17 kts | 140° |
| 2026-05-05 21:23 | 41.97340 | -87.90885 | 669 ft | 19 kts | 135° |
| 2026-05-05 21:23 | 41.97249 | -87.90751 | 669 ft | 20 kts | 122° |
| 2026-05-05 21:23 | 41.97215 | -87.90556 | 669 ft | 22 kts | 94° |
| 2026-05-05 21:23 | 41.97207 | -87.90370 | 669 ft | 21 kts | 91° |
| 2026-05-05 21:24 | 41.97206 | -87.90174 | 669 ft | 22 kts | 90° |
| 2026-05-05 21:24 | 41.97207 | -87.89967 | 669 ft | 24 kts | 88° |
| 2026-05-05 21:24 | 41.97257 | -87.89770 | 669 ft | 17 kts | 60° |
| 2026-05-05 21:24 | 41.97309 | -87.89643 | 669 ft | 5 kts | 74° |
| 2026-05-05 21:25 | 41.97288 | -87.89598 | 669 ft | 10 kts | 145° |
| 2026-05-05 21:25 | 41.97211 | -87.89558 | 669 ft | 14 kts | 137° |
| 2026-05-05 21:25 | 41.97196 | -87.89422 | 669 ft | 18 kts | 89° |
| 2026-05-05 21:25 | 41.97196 | -87.89298 | 668 ft | 14 kts | 90° |
| 2026-05-05 21:26 | 41.97196 | -87.89141 | 668 ft | 19 kts | 90° |
| 2026-05-05 21:26 | 41.97196 | -87.88948 | 668 ft | 23 kts | 89° |
| 2026-05-05 21:26 | 41.97197 | -87.88765 | 668 ft | 20 kts | 89° |
| 2026-05-05 21:26 | 41.97195 | -87.88560 | 668 ft | 24 kts | 93° |
| 2026-05-05 21:27 | 41.97197 | -87.88415 | 668 ft | 22 kts | 87° |
| 2026-05-05 21:27 | 41.97198 | -87.88205 | 668 ft | 24 kts | 90° |
| 2026-05-05 21:27 | 41.97186 | -87.88060 | 668 ft | 0 kts | 126° |
| 2026-05-05 21:28 | 41.97185 | -87.88058 | 668 ft | 2 kts | 128° |
| 2026-05-05 21:28 | 41.97164 | -87.88037 | 668 ft | 6 kts | 156° |
| 2026-05-05 21:28 | 41.97112 | -87.88031 | 668 ft | 10 kts | 184° |
| 2026-05-05 21:28 | 41.97023 | -87.88032 | 668 ft | 15 kts | 179° |
| 2026-05-05 21:29 | 41.96915 | -87.88067 | 668 ft | 18 kts | 217° |
| 2026-05-05 21:29 | 41.96803 | -87.88204 | 666 ft | 37 kts | 221° |
| 2026-05-05 21:29 | 41.96417 | -87.88658 | 668 ft | 110 kts | 222° |
| 2026-05-05 21:29 | 41.95677 | -87.89506 | 704 ft | 163 kts | 224° |
| 2026-05-05 21:30 | 41.94775 | -87.90485 | 1417 ft | 168 kts | 224° |
| 2026-05-05 21:30 | 41.93734 | -87.91422 | 1922 ft | 199 kts | 198° |
| 2026-05-05 21:30 | 41.92299 | -87.91235 | 2448 ft | 226 kts | 154° |
| 2026-05-05 21:30 | 41.90964 | -87.89892 | 2944 ft | 257 kts | 140° |
| 2026-05-05 21:31 | 41.89544 | -87.88199 | 3444 ft | 284 kts | 138° |
| 2026-05-05 21:31 | 41.88084 | -87.86380 | 3937 ft | 278 kts | 137° |
| 2026-05-05 21:31 | 41.86732 | -87.84645 | 4428 ft | 262 kts | 137° |
| 2026-05-05 21:31 | 41.85469 | -87.82994 | 4905 ft | 254 kts | 136° |
| 2026-05-05 21:32 | 41.84328 | -87.81085 | 5359 ft | 276 kts | 113° |
| 2026-05-05 21:32 | 41.84049 | -87.78498 | 5856 ft | 290 kts | 81° |
| 2026-05-05 21:32 | 41.84472 | -87.75819 | 6356 ft | 296 kts | 72° |
| 2026-05-05 21:32 | 41.85059 | -87.73186 | 6808 ft | 294 kts | 70° |
| 2026-05-05 21:33 | 41.85647 | -87.70709 | 7273 ft | 292 kts | 71° |
| 2026-05-05 21:33 | 41.86195 | -87.68092 | 7896 ft | 295 kts | 74° |
| 2026-05-05 21:33 | 41.86656 | -87.65359 | 8535 ft | 305 kts | 78° |
| 2026-05-05 21:33 | 41.87045 | -87.62527 | 9188 ft | 313 kts | 81° |
| 2026-05-05 21:34 | 41.87414 | -87.59611 | 9835 ft | 321 kts | 81° |
| 2026-05-05 21:34 | 41.87804 | -87.56627 | 10447 ft | 329 kts | 81° |
| 2026-05-05 21:34 | 41.88213 | -87.53573 | 11063 ft | 337 kts | 81° |
| 2026-05-05 21:34 | 41.88646 | -87.50413 | 11697 ft | 352 kts | 80° |
| 2026-05-05 21:35 | 41.89101 | -87.47113 | 12351 ft | 366 kts | 80° |
| 2026-05-05 21:35 | 41.89569 | -87.43691 | 13012 ft | 379 kts | 81° |
| 2026-05-05 21:35 | 41.90050 | -87.40155 | 13691 ft | 390 kts | 80° |
| 2026-05-05 21:35 | 41.90532 | -87.36616 | 14288 ft | 400 kts | 80° |
| 2026-05-05 21:36 | 41.91021 | -87.33009 | 14888 ft | 409 kts | 80° |
| 2026-05-05 21:36 | 41.91527 | -87.29225 | 15496 ft | 414 kts | 81° |
| 2026-05-05 21:36 | 41.92037 | -87.25413 | 16119 ft | 416 kts | 81° |
| 2026-05-05 21:36 | 41.92554 | -87.21588 | 16757 ft | 417 kts | 81° |
| 2026-05-05 21:37 | 41.93066 | -87.17756 | 17404 ft | 418 kts | 81° |
| 2026-05-05 21:37 | 41.93580 | -87.13893 | 18068 ft | 423 kts | 81° |
| 2026-05-05 21:37 | 41.94107 | -87.09968 | 18661 ft | 429 kts | 81° |
| 2026-05-05 21:37 | 41.94615 | -87.05993 | 19234 ft | 435 kts | 84° |
| 2026-05-05 21:38 | 41.94816 | -87.01906 | 19744 ft | 440 kts | 92° |
| 2026-05-05 21:38 | 41.94790 | -86.97926 | 20241 ft | 447 kts | 94° |
| 2026-05-05 21:38 | 41.94740 | -86.93703 | 20592 ft | 458 kts | 94° |
| 2026-05-05 21:38 | 41.94737 | -86.89357 | 20761 ft | 471 kts | 91° |
| 2026-05-05 21:39 | 41.94817 | -86.84980 | 20839 ft | 478 kts | 90° |
| 2026-05-05 21:39 | 41.94911 | -86.80512 | 20871 ft | 478 kts | 90° |
| 2026-05-05 21:39 | 41.95003 | -86.76041 | 20884 ft | 477 kts | 91° |
| 2026-05-05 21:39 | 41.95090 | -86.71639 | 20885 ft | 469 kts | 91° |
| 2026-05-05 21:40 | 41.95147 | -86.67231 | 20883 ft | 473 kts | 91° |
| 2026-05-05 21:40 | 41.95204 | -86.63012 | 20884 ft | 468 kts | 91° |
| 2026-05-05 21:40 | 41.95259 | -86.58659 | 20883 ft | 463 kts | 91° |
| 2026-05-05 21:40 | 41.95308 | -86.54352 | 20879 ft | 459 kts | 92° |
| 2026-05-05 21:41 | 41.95360 | -86.50067 | 20881 ft | 458 kts | 92° |
| 2026-05-05 21:41 | 41.95406 | -86.45840 | 20886 ft | 459 kts | 92° |
| 2026-05-05 21:41 | 41.95456 | -86.41540 | 20889 ft | 460 kts | 92° |
| 2026-05-05 21:41 | 41.95499 | -86.37238 | 20889 ft | 462 kts | 92° |
| 2026-05-05 21:42 | 41.95544 | -86.32898 | 20888 ft | 465 kts | 92° |
| 2026-05-05 21:42 | 41.95586 | -86.28736 | 20889 ft | 467 kts | 92° |
| 2026-05-05 21:42 | 41.95626 | -86.24364 | 20889 ft | 469 kts | 92° |
| 2026-05-05 21:42 | 41.95530 | -86.19998 | 20883 ft | 467 kts | 100° |
| 2026-05-05 21:43 | 41.94952 | -86.15725 | 20885 ft | 463 kts | 107° |
| 2026-05-05 21:43 | 41.94186 | -86.11524 | 20887 ft | 462 kts | 108° |
| 2026-05-05 21:43 | 41.93434 | -86.07336 | 20883 ft | 459 kts | 107° |
| 2026-05-05 21:43 | 41.92773 | -86.03163 | 20883 ft | 456 kts | 105° |
| 2026-05-05 21:44 | 41.92156 | -85.98988 | 20885 ft | 453 kts | 105° |
| 2026-05-05 21:44 | 41.91560 | -85.95074 | 20849 ft | 450 kts | 106° |
| 2026-05-05 21:44 | 41.90925 | -85.90978 | 20867 ft | 447 kts | 106° |
| 2026-05-05 21:44 | 41.90298 | -85.86915 | 20873 ft | 445 kts | 106° |
| 2026-05-05 21:45 | 41.89671 | -85.82849 | 20875 ft | 443 kts | 106° |
| 2026-05-05 21:45 | 41.89040 | -85.78792 | 20875 ft | 448 kts | 106° |
| 2026-05-05 21:45 | 41.88402 | -85.74670 | 20879 ft | 452 kts | 106° |
| 2026-05-05 21:45 | 41.87756 | -85.70526 | 20881 ft | 456 kts | 106° |
| 2026-05-05 21:46 | 41.87107 | -85.66338 | 20880 ft | 460 kts | 106° |
| 2026-05-05 21:46 | 41.86447 | -85.62123 | 20882 ft | 463 kts | 106° |
| 2026-05-05 21:46 | 41.85810 | -85.58061 | 20883 ft | 466 kts | 106° |
| 2026-05-05 21:46 | 41.85148 | -85.53821 | 20890 ft | 462 kts | 106° |
| 2026-05-05 21:47 | 41.84488 | -85.49627 | 20889 ft | 458 kts | 106° |
| 2026-05-05 21:47 | 41.83829 | -85.45460 | 20887 ft | 454 kts | 106° |
| 2026-05-05 21:47 | 41.83176 | -85.41342 | 20873 ft | 450 kts | 107° |
| 2026-05-05 21:47 | 41.82526 | -85.37255 | 20875 ft | 447 kts | 107° |
| 2026-05-05 21:48 | 41.81870 | -85.33141 | 20881 ft | 453 kts | 106° |
| 2026-05-05 21:48 | 41.81208 | -85.28986 | 20861 ft | 458 kts | 106° |
| 2026-05-05 21:48 | 41.80574 | -85.25001 | 20863 ft | 460 kts | 107° |
| 2026-05-05 21:48 | 41.79906 | -85.20829 | 20865 ft | 462 kts | 107° |
| 2026-05-05 21:49 | 41.79227 | -85.16610 | 20858 ft | 464 kts | 106° |
| 2026-05-05 21:49 | 41.78550 | -85.12385 | 20858 ft | 465 kts | 107° |
| 2026-05-05 21:49 | 41.77868 | -85.08159 | 20858 ft | 462 kts | 107° |
| 2026-05-05 21:49 | 41.77190 | -85.03976 | 20848 ft | 457 kts | 107° |
| 2026-05-05 21:50 | 41.76516 | -84.99827 | 20852 ft | 453 kts | 107° |
| 2026-05-05 21:50 | 41.75848 | -84.95714 | 20851 ft | 450 kts | 107° |
| 2026-05-05 21:50 | 41.75183 | -84.91642 | 20855 ft | 447 kts | 107° |
| 2026-05-05 21:50 | 41.74577 | -84.87939 | 20874 ft | 444 kts | 107° |
| 2026-05-05 21:51 | 41.73915 | -84.83893 | 20667 ft | 448 kts | 107° |
| 2026-05-05 21:51 | 41.73243 | -84.79794 | 20189 ft | 452 kts | 107° |
| 2026-05-05 21:51 | 41.72576 | -84.75709 | 19722 ft | 440 kts | 107° |
| 2026-05-05 21:51 | 41.71955 | -84.71857 | 19261 ft | 420 kts | 107° |
| 2026-05-05 21:52 | 41.70752 | -84.64279 | 18350 ft | 415 kts | 107° |
| 2026-05-05 21:52 | 41.70137 | -84.60524 | 17873 ft | 412 kts | 108° |
| 2026-05-05 21:52 | 41.69520 | -84.56792 | 17376 ft | 411 kts | 108° |
| 2026-05-05 21:53 | 41.68926 | -84.53226 | 17178 ft | 410 kts | 108° |
| 2026-05-05 21:53 | 41.68309 | -84.49528 | 17208 ft | 405 kts | 108° |
| 2026-05-05 21:53 | 41.67686 | -84.45821 | 16646 ft | 409 kts | 108° |
| 2026-05-05 21:53 | 41.67033 | -84.42169 | 16028 ft | 396 kts | 111° |
| 2026-05-05 21:54 | 41.66453 | -84.38583 | 15432 ft | 399 kts | 95° |
| 2026-05-05 21:54 | 41.66645 | -84.34890 | 14833 ft | 394 kts | 85° |
| 2026-05-05 21:54 | 41.66985 | -84.31305 | 14237 ft | 383 kts | 84° |
| 2026-05-05 21:54 | 41.67347 | -84.27817 | 13597 ft | 375 kts | 83° |
| 2026-05-05 21:55 | 41.67705 | -84.24433 | 12827 ft | 370 kts | 83° |
| 2026-05-05 21:55 | 41.68072 | -84.21049 | 12046 ft | 365 kts | 83° |
| 2026-05-05 21:55 | 41.68421 | -84.17858 | 11323 ft | 361 kts | 83° |
| 2026-05-05 21:55 | 41.68786 | -84.14545 | 10586 ft | 357 kts | 83° |
| 2026-05-05 21:56 | 41.69145 | -84.11280 | 9858 ft | 353 kts | 83° |
| 2026-05-05 21:56 | 41.69502 | -84.08039 | 9076 ft | 350 kts | 83° |
| 2026-05-05 21:56 | 41.69856 | -84.04849 | 8309 ft | 345 kts | 83° |
| 2026-05-05 21:56 | 41.70209 | -84.01693 | 7555 ft | 340 kts | 83° |
| 2026-05-05 21:57 | 41.70563 | -83.98576 | 6822 ft | 336 kts | 83° |
| 2026-05-05 21:57 | 41.70915 | -83.95512 | 6075 ft | 330 kts | 83° |
| 2026-05-05 21:57 | 41.71249 | -83.92501 | 5317 ft | 324 kts | 82° |
| 2026-05-05 21:57 | 41.71547 | -83.89543 | 4569 ft | 318 kts | 83° |
| 2026-05-05 21:58 | 41.71825 | -83.86643 | 3942 ft | 307 kts | 82° |
| 2026-05-05 21:58 | 41.72051 | -83.83999 | 3505 ft | 293 kts | 83° |
| 2026-05-05 21:58 | 41.72251 | -83.81368 | 3252 ft | 273 kts | 83° |
| 2026-05-05 21:58 | 41.72419 | -83.78954 | 3147 ft | 255 kts | 83° |
| 2026-05-05 21:59 | 41.72572 | -83.76622 | 3090 ft | 251 kts | 82° |
| 2026-05-05 21:59 | 41.72710 | -83.74306 | 3050 ft | 248 kts | 83° |
| 2026-05-05 21:59 | 41.72840 | -83.72014 | 3020 ft | 248 kts | 83° |
| 2026-05-05 21:59 | 41.72983 | -83.69694 | 2988 ft | 252 kts | 83° |
| 2026-05-05 22:00 | 41.73128 | -83.67342 | 2951 ft | 255 kts | 83° |
| 2026-05-05 22:00 | 41.73269 | -83.64957 | 2934 ft | 258 kts | 83° |
| 2026-05-05 22:00 | 41.73389 | -83.62600 | 2905 ft | 250 kts | 89° |
| 2026-05-05 22:00 | 41.72891 | -83.60433 | 2865 ft | 245 kts | 128° |
| 2026-05-05 22:01 | 41.71704 | -83.58836 | 2858 ft | 242 kts | 140° |
| 2026-05-05 22:01 | 41.70446 | -83.57344 | 2838 ft | 242 kts | 141° |
| 2026-05-05 22:01 | 41.69099 | -83.56015 | 2810 ft | 238 kts | 161° |
| 2026-05-05 22:01 | 41.67513 | -83.55869 | 2799 ft | 230 kts | 202° |
| 2026-05-05 22:02 | 41.66146 | -83.56875 | 2805 ft | 224 kts | 230° |
| 2026-05-05 22:02 | 41.65428 | -83.58587 | 2816 ft | 204 kts | 261° |
| 2026-05-05 22:02 | 41.65198 | -83.60379 | 2776 ft | 188 kts | 266° |
| 2026-05-05 22:02 | 41.65042 | -83.62061 | 2736 ft | 176 kts | 268° |
| 2026-05-05 22:03 | 41.64915 | -83.63628 | 2700 ft | 162 kts | 268° |
| 2026-05-05 22:03 | 41.64817 | -83.65048 | 2658 ft | 145 kts | 269° |
| 2026-05-05 22:03 | 41.64733 | -83.66288 | 2622 ft | 124 kts | 269° |
| 2026-05-05 22:03 | 41.64663 | -83.67384 | 2572 ft | 118 kts | 269° |
| 2026-05-05 22:04 | 41.64386 | -83.68431 | 2489 ft | 131 kts | 229° |
| 2026-05-05 22:04 | 41.63553 | -83.68997 | 2445 ft | 135 kts | 215° |
| 2026-05-05 22:04 | 41.62919 | -83.69809 | 2416 ft | 124 kts | 241° |
| 2026-05-05 22:04 | 41.62374 | -83.70710 | 2404 ft | 126 kts | 235° |
| 2026-05-05 22:05 | 41.61821 | -83.71636 | 2386 ft | 128 kts | 251° |
| 2026-05-05 22:05 | 41.61712 | -83.72784 | 2410 ft | 127 kts | 270° |
| 2026-05-05 22:05 | 41.61658 | -83.73978 | 2462 ft | 126 kts | 269° |
| 2026-05-05 22:05 | 41.61584 | -83.75105 | 2451 ft | 116 kts | 268° |
| 2026-05-05 22:06 | 41.61375 | -83.76126 | 2255 ft | 123 kts | 244° |
| 2026-05-05 22:06 | 41.60679 | -83.76990 | 1765 ft | 147 kts | 221° |
| 2026-05-05 22:06 | 41.59908 | -83.77854 | 1193 ft | 145 kts | 231° |
| 2026-05-05 22:06 | 41.59433 | -83.78960 | 828 ft | 130 kts | 248° |
| 2026-05-05 22:07 | 41.59106 | -83.80009 | 673 ft | 112 kts | 249° |
| 2026-05-05 22:07 | 41.58833 | -83.80874 | 677 ft | 90 kts | 247° |
| 2026-05-05 22:07 | 41.58660 | -83.81423 | 680 ft | 48 kts | 247° |
| 2026-05-05 22:07 | 41.58574 | -83.81695 | 683 ft | 16 kts | 247° |
| 2026-05-05 22:08 | 41.58554 | -83.81791 | 686 ft | 11 kts | 260° |
| 2026-05-05 22:08 | 41.58594 | -83.81884 | 685 ft | 15 kts | 330° |
| 2026-05-05 22:08 | 41.58688 | -83.81895 | 684 ft | 14 kts | 49° |
| 2026-05-05 22:08 | 41.58738 | -83.81751 | 680 ft | 20 kts | 66° |
| 2026-05-05 22:09 | 41.58790 | -83.81581 | 682 ft | 21 kts | 68° |
| 2026-05-05 22:09 | 41.58846 | -83.81405 | 681 ft | 21 kts | 67° |
| 2026-05-05 22:09 | 41.58908 | -83.81204 | 677 ft | 25 kts | 65° |
| 2026-05-05 22:09 | 41.58980 | -83.80978 | 677 ft | 23 kts | 67° |
| 2026-05-05 22:10 | 41.59049 | -83.80768 | 678 ft | 23 kts | 65° |
| 2026-05-05 22:10 | 41.59098 | -83.80620 | 675 ft | 9 kts | 64° |
| 2026-05-05 22:10 | 41.59110 | -83.80590 | 675 ft | 2 kts | 48° |
| 2026-05-05 22:10 | 41.59125 | -83.80582 | 677 ft | 0 kts | 351° |
| 2026-05-05 22:11 | 41.59138 | -83.80606 | 677 ft | 9 kts | 298° |
| 2026-05-05 22:11 | 41.59174 | -83.80631 | 674 ft | 1 kts | 347° |
| 2026-05-05 22:11 | 41.59176 | -83.80632 | 676 ft | 0 kts | 347° |